Time;durP1;ratioP1;P1;durP2;ratioP2;P2;SDS_P1;SDS_P2;PMS_P1;PMS_P2;Temp;Humidity;BMP_temperature;BMP_pressure;BME280_temperature;BME280_humidity;BME280_pressure;Samples;Min_cycle;Max_cycle;Signal;HPM_P1;HPM_P2
2023/02/27 00:00:21;;;;;;;9.80;4.68;;;;;;;4.12;100.00;99826.94;4990458;28;20062;-70
2023/02/27 00:02:48;;;;;;;6.25;3.95;;;;;;;4.24;100.00;99852.25;4992033;28;20076;-70
2023/02/27 00:05:14;;;;;;;7.60;5.05;;;;;;;3.78;100.00;99779.66;4991620;28;20121;-74
2023/02/27 00:07:40;;;;;;;23.05;4.72;;;;;;;3.87;100.00;99811.81;4991918;28;20026;-70
2023/02/27 00:10:08;;;;;;;10.75;4.35;;;;;;;4.93;100.00;99983.25;4991960;28;20038;-71
2023/02/27 00:12:37;;;;;;;19.15;5.82;;;;;;;4.11;100.00;99856.34;4991775;28;20104;-72
2023/02/27 00:15:09;;;;;;;9.10;4.97;;;;;;;4.95;100.00;99963.34;4991803;28;20030;-70
2023/02/27 00:17:35;;;;;;;6.93;3.95;;;;;;;4.59;100.00;99940.25;4991652;28;20038;-72
2023/02/27 00:20:00;;;;;;;11.50;5.80;;;;;;;4.65;100.00;99937.75;4991448;28;20034;-69
2023/02/27 00:22:26;;;;;;;10.93;5.80;;;;;;;3.87;100.00;99822.19;4991868;28;20069;-71
2023/02/27 00:24:52;;;;;;;9.15;5.35;;;;;;;4.57;100.00;99963.63;4991893;28;20066;-73
2023/02/27 00:27:17;;;;;;;6.72;4.22;;;;;;;4.29;100.00;99881.75;4991718;28;20042;-70
2023/02/27 00:29:43;;;;;;;9.27;5.30;;;;;;;4.68;100.00;99960.31;4991428;28;20062;-69
2023/02/27 00:32:08;;;;;;;8.85;5.25;;;;;;;4.76;100.00;99961.31;4991891;28;20026;-71
2023/02/27 00:34:34;;;;;;;11.10;4.63;;;;;;;4.64;100.00;99969.78;4991370;28;20072;-71
2023/02/27 00:36:59;;;;;;;19.23;10.15;;;;;;;3.92;100.00;99828.31;4991403;28;20034;-70
2023/02/27 00:39:25;;;;;;;9.20;5.13;;;;;;;4.64;100.00;99957.66;4991621;28;20027;-68
2023/02/27 00:41:50;;;;;;;10.15;6.25;;;;;;;4.05;100.00;99839.78;4989412;28;20026;-71
2023/02/27 00:44:16;;;;;;;8.68;6.05;;;;;;;4.17;100.00;99859.06;4991388;28;20097;-71
2023/02/27 00:46:41;;;;;;;18.13;5.50;;;;;;;4.68;100.00;99971.56;4990065;28;20022;-71
2023/02/27 00:49:07;;;;;;;10.00;4.68;;;;;;;4.77;100.00;99963.94;4991415;28;20034;-71
2023/02/27 00:51:32;;;;;;;11.15;6.15;;;;;;;3.92;100.00;99817.94;4991272;28;20054;-69
2023/02/27 00:53:58;;;;;;;14.50;5.47;;;;;;;4.55;100.00;99939.31;4991003;28;20042;-69
2023/02/27 00:56:23;;;;;;;11.38;5.93;;;;;;;4.25;100.00;99890.31;4989737;28;20474;-69
2023/02/27 00:58:49;;;;;;;9.95;4.32;;;;;;;4.85;100.00;99985.72;4991330;28;20088;-70
2023/02/27 01:01:14;;;;;;;9.57;4.75;;;;;;;4.68;100.00;99955.97;4988128;28;20023;-69
2023/02/27 01:03:40;;;;;;;9.75;4.88;;;;;;;4.90;100.00;99988.41;4991091;28;20046;-70
2023/02/27 01:06:05;;;;;;;8.95;4.78;;;;;;;4.03;100.00;99857.94;4990776;28;20036;-70
2023/02/27 01:08:31;;;;;;;7.30;4.53;;;;;;;4.13;100.00;99875.41;4990683;28;20044;-69
2023/02/27 01:10:56;;;;;;;9.07;5.55;;;;;;;4.80;100.00;100002.97;4990619;28;20041;-71
2023/02/27 01:13:22;;;;;;;9.98;5.25;;;;;;;4.76;100.00;99998.56;4990985;28;20039;-69
2023/02/27 01:15:48;;;;;;;12.10;7.20;;;;;;;4.45;100.00;99919.25;4990983;28;20064;-70
2023/02/27 01:18:13;;;;;;;9.95;5.43;;;;;;;4.03;100.00;99925.44;4990444;28;20038;-72
2023/02/27 01:20:39;;;;;;;10.98;4.78;;;;;;;3.68;100.00;99858.19;4990728;28;20458;-71
2023/02/27 01:23:04;;;;;;;12.38;3.97;;;;;;;3.41;100.00;99783.31;4990628;28;20186;-71
2023/02/27 01:25:30;;;;;;;23.80;5.25;;;;;;;4.46;100.00;99948.69;4990494;28;20038;-70
2023/02/27 01:27:55;;;;;;;7.78;5.50;;;;;;;4.43;100.00;99942.59;4990488;28;20034;-70
2023/02/27 01:30:21;;;;;;;13.35;4.45;;;;;;;4.35;100.00;99922.53;4990164;28;20442;-70
2023/02/27 01:32:46;;;;;;;7.53;4.00;;;;;;;4.22;100.00;99919.72;4990693;28;20031;-69
2023/02/27 01:35:12;;;;;;;12.80;5.22;;;;;;;3.52;100.00;99799.94;4990576;28;20644;-71
2023/02/27 01:37:37;;;;;;;11.55;5.05;;;;;;;4.53;100.00;99954.00;4990552;28;20537;-70
2023/02/27 01:40:05;;;;;;;8.90;4.70;;;;;;;4.64;100.00;99955.06;4990805;28;20030;-77
2023/02/27 01:42:31;;;;;;;11.20;5.22;;;;;;;4.22;100.00;99900.69;4988390;28;20034;-71
2023/02/27 01:45:11;;;;;;;12.27;4.60;;;;;;;4.14;100.00;99868.50;4990646;28;20040;-69
2023/02/27 01:47:43;;;;;;;12.05;5.88;;;;;;;3.94;100.00;99863.84;4990224;28;20038;-69
2023/02/27 01:50:12;;;;;;;9.10;5.15;;;;;;;3.83;100.00;99843.72;4990105;28;20054;-70
2023/02/27 01:52:40;;;;;;;8.27;5.75;;;;;;;3.92;100.00;99834.38;4990179;28;20034;-70
2023/02/27 01:55:11;;;;;;;11.15;4.45;;;;;;;3.83;100.00;99820.38;4989626;28;20425;-69
2023/02/27 01:57:37;;;;;;;12.60;5.10;;;;;;;4.70;100.00;99977.66;4971484;28;20117;-70
2023/02/27 02:00:04;;;;;;;8.95;3.60;;;;;;;4.05;100.00;99853.66;4980836;28;20200;-70
2023/02/27 02:02:36;;;;;;;11.85;4.35;;;;;;;4.58;100.00;99974.88;4988284;28;20050;-70
2023/02/27 02:05:02;;;;;;;10.93;4.40;;;;;;;4.51;100.00;99966.09;4990002;28;20065;-69
2023/02/27 02:07:28;;;;;;;11.95;4.65;;;;;;;4.65;100.00;100010.50;4989845;28;20069;-70
2023/02/27 02:09:58;;;;;;;7.45;3.88;;;;;;;4.53;100.00;99995.56;4987111;28;20046;-71
2023/02/27 02:12:27;;;;;;;6.93;3.17;;;;;;;4.13;100.00;99987.06;4984500;28;20141;-75
2023/02/27 02:14:53;;;;;;;10.55;4.50;;;;;;;4.23;100.00;99982.91;4986915;28;20394;-69
2023/02/27 02:17:40;;;;;;;6.90;3.20;;;;;;;4.51;100.00;99996.41;4988105;28;20038;-71
2023/02/27 02:20:17;;;;;;;15.25;5.55;;;;;;;4.43;100.00;99994.53;4983912;28;20084;-70
2023/02/27 02:22:58;;;;;;;7.65;4.43;;;;;;;4.57;100.00;100001.72;4989262;28;20034;-69
2023/02/27 02:25:29;;;;;;;12.70;4.20;;;;;;;4.62;100.00;100005.25;4989855;28;20038;-70
2023/02/27 02:28:00;;;;;;;8.43;3.80;;;;;;;4.63;100.00;100013.06;4987879;28;20034;-71
2023/02/27 02:30:55;;;;;;;9.25;3.67;;;;;;;3.99;100.00;99892.47;4989292;28;20034;-71
2023/02/27 02:33:54;;;;;;;8.77;4.03;;;;;;;4.60;100.00;100018.22;4989279;28;20394;-71
2023/02/27 02:36:40;;;;;;;8.73;3.60;;;;;;;4.28;100.00;100022.81;4989669;28;20116;-71
2023/02/27 02:39:19;;;;;;;6.80;3.40;;;;;;;4.38;100.00;100011.78;4989300;28;20502;-71
2023/02/27 02:42:05;;;;;;;6.10;3.33;;;;;;;4.16;100.00;99986.25;4987959;28;20035;-71
2023/02/27 02:44:46;;;;;;;5.13;2.63;;;;;;;4.38;100.00;100005.72;4988069;28;20037;-70
2023/02/27 02:47:20;;;;;;;12.50;3.22;;;;;;;4.14;100.00;100008.69;4989187;28;20027;-71
2023/02/27 02:49:54;;;;;;;9.95;3.25;;;;;;;4.17;100.00;100011.38;4987968;28;20599;-73
2023/02/27 02:52:44;;;;;;;6.78;3.20;;;;;;;3.50;100.00;99878.56;4989398;28;20045;-70
2023/02/27 02:55:21;;;;;;;6.47;3.40;;;;;;;4.13;100.00;99981.88;4989552;28;20042;-69
2023/02/27 02:57:53;;;;;;;6.72;3.05;;;;;;;4.21;100.00;99982.00;4988273;28;20038;-69
2023/02/27 03:00:26;;;;;;;4.55;2.53;;;;;;;4.09;100.00;99992.16;4989105;28;20052;-69
2023/02/27 03:02:55;;;;;;;;;;;;;;;4.32;100.00;100009.06;4989654;28;20053;-69
2023/02/27 03:05:29;;;;;;;7.75;4.43;;;;;;;4.13;100.00;99981.88;4989400;28;20576;-72
2023/02/27 03:08:13;;;;;;;5.90;3.33;;;;;;;4.31;100.00;100025.50;4989493;28;20053;-71
2023/02/27 03:10:48;;;;;;;22.17;3.83;;;;;;;4.30;100.00;99996.88;4989144;28;20078;-71
2023/02/27 03:13:44;;;;;;;11.60;4.00;;;;;;;3.60;100.00;99875.31;4989402;28;20042;-72
2023/02/27 03:16:19;;;;;;;10.65;5.95;;;;;;;4.40;100.00;100029.97;4987948;28;20108;-71
2023/02/27 03:19:09;;;;;;;7.70;4.03;;;;;;;4.44;100.00;100043.03;4987462;28;20045;-70
2023/02/27 03:21:42;;;;;;;8.00;3.75;;;;;;;4.49;100.00;100021.47;4989094;28;20105;-70
2023/02/27 03:24:13;;;;;;;13.57;3.80;;;;;;;4.30;100.00;99989.97;4990793;28;20034;-71
2023/02/27 03:26:42;;;;;;;10.65;4.07;;;;;;;3.88;100.00;99922.53;4993055;28;20041;-71
2023/02/27 03:29:15;;;;;;;5.53;3.20;;;;;;;3.77;100.00;99894.69;4992011;28;20421;-72
2023/02/27 03:31:55;;;;;;;14.48;3.75;;;;;;;4.53;100.00;100023.28;4992719;28;20030;-72
2023/02/27 03:34:32;;;;;;;8.35;3.72;;;;;;;4.58;100.00;100039.81;4992413;28;20593;-71
2023/02/27 03:37:05;;;;;;;8.85;2.85;;;;;;;4.32;100.00;100013.38;4992664;28;20034;-70
2023/02/27 03:39:46;;;;;;;17.40;3.53;;;;;;;4.54;100.00;100051.91;4992703;28;20034;-71
2023/02/27 03:42:36;;;;;;;10.70;3.70;;;;;;;4.54;100.00;100051.91;4992337;28;20042;-71
2023/02/27 03:45:37;;;;;;;6.25;3.53;;;;;;;3.69;100.00;99900.56;4992308;28;20072;-71
2023/02/27 03:48:05;;;;;;;7.32;3.75;;;;;;;4.24;100.00;100010.66;4974440;28;20046;-71
2023/02/27 03:50:32;;;;;;;5.85;3.42;;;;;;;4.25;100.00;100011.50;4989853;28;20069;-71
2023/02/27 03:52:58;;;;;;;6.65;4.38;;;;;;;4.41;100.00;100031.72;4992306;28;20038;-71
2023/02/27 03:55:31;;;;;;;6.00;3.38;;;;;;;3.19;100.00;99887.44;4991991;28;20093;-71
2023/02/27 03:57:57;;;;;;;8.60;2.75;;;;;;;3.98;100.00;100000.63;4991747;28;20034;-75
2023/02/27 04:00:24;;;;;;;6.93;3.53;;;;;;;3.35;100.00;99886.94;4991807;28;20041;-71
2023/02/27 04:02:53;;;;;;;9.77;3.88;;;;;;;4.39;100.00;100047.28;4992063;28;20185;-69
2023/02/27 04:05:20;;;;;;;11.48;4.70;;;;;;;4.37;100.00;100043.78;4991974;28;20045;-70
2023/02/27 04:07:55;;;;;;;8.57;3.22;;;;;;;4.51;100.00;100058.75;4991850;28;20711;-70
2023/02/27 04:10:39;;;;;;;5.32;2.95;;;;;;;4.55;100.00;100070.97;4991754;28;20448;-71
2023/02/27 04:13:20;;;;;;;12.05;3.75;;;;;;;4.61;100.00;100084.94;4991806;28;20039;-73
2023/02/27 04:16:07;;;;;;;11.18;5.90;;;;;;;4.57;100.00;100101.31;4991726;28;20026;-70
2023/02/27 04:18:56;;;;;;;5.53;3.70;;;;;;;4.55;100.00;100122.94;4990396;28;20034;-73
2023/02/27 04:21:46;;;;;;;9.57;2.63;;;;;;;3.52;100.00;99976.31;4991717;28;20034;-72
2023/02/27 04:24:20;;;;;;;17.70;5.35;;;;;;;4.40;100.00;100133.88;4991812;28;20057;-72
2023/02/27 04:26:54;;;;;;;10.98;3.53;;;;;;;4.09;100.00;100064.84;4991498;28;20038;-70
2023/02/27 04:29:32;;;;;;;15.30;3.20;;;;;;;3.63;100.00;99994.72;4991679;28;20045;-71
2023/02/27 04:32:20;;;;;;;5.18;3.13;;;;;;;4.51;100.00;100128.91;4991854;28;20046;-71
2023/02/27 04:34:54;;;;;;;6.30;3.33;;;;;;;4.67;100.00;100135.28;4989297;28;20034;-69
2023/02/27 04:37:36;;;;;;;12.63;4.38;;;;;;;4.73;100.00;100135.38;4991143;28;20034;-70
2023/02/27 04:40:15;;;;;;;8.20;2.40;;;;;;;3.72;100.00;99981.03;4991381;28;20038;-72
2023/02/27 04:42:46;;;;;;;8.30;3.17;;;;;;;3.92;100.00;99971.06;4991115;28;20089;-71
2023/02/27 04:45:15;;;;;;;4.72;2.90;;;;;;;4.14;100.00;100035.53;4991076;28;20070;-71
2023/02/27 04:47:53;;;;;;;8.15;3.28;;;;;;;4.52;100.00;100125.44;4990635;28;20034;-71
2023/02/27 04:50:27;;;;;;;6.60;3.05;;;;;;;4.61;100.00;100138.63;4989657;28;20050;-70
2023/02/27 04:53:07;;;;;;;6.03;3.38;;;;;;;4.44;100.00;100161.66;4990737;28;20049;-70
2023/02/27 04:55:38;;;;;;;7.70;3.90;;;;;;;2.92;100.00;99912.78;4991147;28;20026;-69
2023/02/27 04:58:16;;;;;;;9.95;3.95;;;;;;;4.56;100.00;100159.31;4989351;28;20518;-71
2023/02/27 05:00:47;;;;;;;9.05;5.75;;;;;;;4.42;100.00;100145.16;4990882;28;20065;-70
2023/02/27 05:03:34;;;;;;;8.38;3.55;;;;;;;4.49;100.00;100130.59;4990658;28;20042;-73
2023/02/27 05:06:02;;;;;;;5.07;2.95;;;;;;;4.43;100.00;100116.63;4990941;28;20044;-71
2023/02/27 05:08:38;;;;;;;6.32;3.90;;;;;;;3.71;100.00;99980.16;4991178;28;20424;-71
2023/02/27 05:11:25;;;;;;;8.20;3.88;;;;;;;4.48;100.00;100095.94;4991028;28;20045;-72
2023/02/27 05:13:58;;;;;;;6.85;4.40;;;;;;;3.79;100.00;99954.38;4988839;28;20136;-72
2023/02/27 05:16:48;;;;;;;8.93;3.35;;;;;;;4.44;100.00;100076.81;4990828;28;20464;-71
2023/02/27 05:19:14;;;;;;;6.88;3.25;;;;;;;4.11;100.00;100039.81;4988577;28;20034;-71
2023/02/27 05:22:09;;;;;;;11.48;3.35;;;;;;;4.34;100.00;100048.91;4990165;28;20513;-73
2023/02/27 05:24:51;;;;;;;8.63;4.13;;;;;;;3.50;100.00;99905.38;4978437;28;20345;-70
2023/02/27 05:27:51;;;;;;;7.90;3.88;;;;;;;4.25;100.00;100001.13;4990283;28;20034;-70
2023/02/27 05:30:26;;;;;;;9.35;2.88;;;;;;;4.32;100.00;100052.34;4989808;28;20117;-72
2023/02/27 05:33:14;;;;;;;12.75;4.82;;;;;;;3.40;100.00;99911.22;4990461;28;20038;-72
2023/02/27 05:36:10;;;;;;;6.82;4.18;;;;;;;4.19;100.00;100075.47;4989541;28;20046;-70
2023/02/27 05:38:43;;;;;;;14.05;5.20;;;;;;;3.38;100.00;99931.06;4989716;28;20049;-69
2023/02/27 05:41:34;;;;;;;6.45;2.88;;;;;;;4.14;100.00;100082.25;4989194;28;20038;-74
2023/02/27 05:44:05;;;;;;;8.32;4.32;;;;;;;4.30;100.00;100104.22;4989714;28;20103;-70
2023/02/27 05:46:36;;;;;;;6.85;3.25;;;;;;;4.36;100.00;100111.28;4989241;28;20084;-70
2023/02/27 05:49:09;;;;;;;9.00;4.40;;;;;;;4.43;100.00;100084.59;4988982;28;20031;-70
2023/02/27 05:51:38;;;;;;;6.53;2.97;;;;;;;4.23;100.00;100086.78;4984940;28;20054;-71
2023/02/27 05:54:21;;;;;;;6.78;3.80;;;;;;;4.25;100.00;100085.09;4982103;28;20368;-72
2023/02/27 05:56:49;;;;;;;10.63;3.42;;;;;;;3.50;100.00;99917.47;4987237;28;20057;-72
2023/02/27 05:59:52;;;;;;;9.35;3.55;;;;;;;4.06;100.00;100070.00;4988879;28;20046;-71
2023/02/27 06:02:18;;;;;;;9.65;4.65;;;;;;;3.85;100.00;100094.66;4967370;28;20052;-72
2023/02/27 06:04:44;;;;;;;26.15;4.63;;;;;;;4.19;100.00;100095.34;4988515;28;20126;-70
2023/02/27 06:07:12;;;;;;;11.70;4.32;;;;;;;3.42;100.00;99965.69;4989306;28;20034;-71
2023/02/27 06:09:38;;;;;;;10.73;4.53;;;;;;;4.31;100.00;100139.78;4987596;28;20046;-69
2023/02/27 06:12:03;;;;;;;8.65;5.75;;;;;;;4.31;100.00;100128.47;4988821;28;20026;-72
2023/02/27 06:14:29;;;;;;;7.35;3.97;;;;;;;4.43;100.00;100193.69;4988840;28;20139;-69
2023/02/27 06:16:54;;;;;;;8.52;4.10;;;;;;;4.31;100.00;100177.81;4989245;28;20046;-72
2023/02/27 06:19:20;;;;;;;6.90;4.40;;;;;;;4.22;100.00;100168.13;4987801;28;20487;-70
2023/02/27 06:21:45;;;;;;;6.78;2.67;;;;;;;4.35;100.00;100253.25;4988288;28;20038;-71
2023/02/27 06:24:11;;;;;;;5.65;3.28;;;;;;;3.59;100.00;100132.97;4989529;28;20038;-73
2023/02/27 06:26:36;;;;;;;7.72;4.70;;;;;;;3.83;100.00;100119.69;4988893;28;20513;-73
2023/02/27 06:29:02;;;;;;;6.38;4.05;;;;;;;3.84;100.00;100134.44;4971344;28;20166;-70
2023/02/27 06:31:27;;;;;;;6.07;3.20;;;;;;;4.08;100.00;100173.03;4985141;28;20108;-70
2023/02/27 06:33:54;;;;;;;6.13;3.30;;;;;;;4.33;100.00;100247.16;4984884;28;20038;-70
2023/02/27 06:36:21;;;;;;;5.18;2.92;;;;;;;4.18;100.00;100234.69;4982585;28;20130;-71
2023/02/27 06:38:47;;;;;;;6.90;3.78;;;;;;;4.47;100.00;100335.78;4983825;28;20041;-71
2023/02/27 06:41:13;;;;;;;10.02;4.65;;;;;;;4.75;100.00;100320.81;4984647;28;20034;-74
2023/02/27 06:43:38;;;;;;;11.88;5.28;;;;;;;4.09;100.00;100207.66;4987317;28;20041;-73
2023/02/27 06:46:04;;;;;;;5.47;3.55;;;;;;;4.58;100.00;100344.72;4986149;28;20539;-72
2023/02/27 06:48:29;;;;;;;7.05;4.68;;;;;;;4.57;100.00;100339.50;4985898;28;20064;-71
2023/02/27 06:50:55;;;;;;;7.05;4.00;;;;;;;3.96;100.00;100212.56;4982300;28;20046;-70
2023/02/27 06:53:22;;;;;;;6.32;3.70;;;;;;;4.74;100.00;100365.88;4988380;28;20038;-71
2023/02/27 06:55:48;;;;;;;8.07;4.25;;;;;;;4.27;100.00;100241.81;4988295;28;20045;-72
2023/02/27 06:58:14;;;;;;;12.02;5.25;;;;;;;5.04;100.00;100352.66;4988758;28;20077;-72
2023/02/27 07:00:39;;;;;;;6.32;4.18;;;;;;;4.93;100.00;100367.16;4990893;28;20038;-71
2023/02/27 07:03:05;;;;;;;14.07;5.68;;;;;;;4.30;100.00;100241.00;4986478;28;20041;-73
2023/02/27 07:05:30;;;;;;;9.05;5.00;;;;;;;5.07;100.00;100378.72;4978931;28;20034;-70
2023/02/27 07:07:57;;;;;;;9.77;4.80;;;;;;;4.58;100.00;100388.00;4981570;28;20128;-72
2023/02/27 07:10:23;;;;;;;7.57;4.18;;;;;;;4.20;100.00;100359.38;4988667;28;20042;-72
2023/02/27 07:12:49;;;;;;;10.52;5.47;;;;;;;4.34;100.00;100359.72;4982284;28;20050;-75
2023/02/27 07:15:15;;;;;;;8.40;4.28;;;;;;;4.62;100.00;100376.84;4987661;28;20097;-71
2023/02/27 07:17:40;;;;;;;11.20;5.03;;;;;;;4.78;100.00;100363.38;4982526;28;20125;-70
2023/02/27 07:20:07;;;;;;;8.73;4.57;;;;;;;3.67;100.00;100242.97;4986065;28;20037;-70
2023/02/27 07:22:33;;;;;;;14.77;6.10;;;;;;;4.01;100.00;100262.00;4991451;28;20085;-70
2023/02/27 07:24:59;;;;;;;14.82;5.30;;;;;;;4.42;100.00;100376.38;4988100;28;20066;-70
2023/02/27 07:27:24;;;;;;;18.92;6.80;;;;;;;3.81;100.00;100279.66;4978367;28;20038;-72
2023/02/27 07:29:51;;;;;;;13.95;6.38;;;;;;;3.84;100.00;100239.94;4987286;28;20379;-71
2023/02/27 07:32:17;;;;;;;12.18;7.72;;;;;;;4.93;100.00;100383.63;4990188;28;20030;-77
2023/02/27 07:34:42;;;;;;;12.77;7.85;;;;;;;5.00;100.00;100375.09;4989259;28;20042;-72
2023/02/27 07:37:08;;;;;;;10.95;4.95;;;;;;;5.14;100.00;100377.13;4987727;28;20406;-72
2023/02/27 07:39:33;;;;;;;11.95;6.20;;;;;;;5.13;100.00;100358.06;4990573;28;20075;-71
2023/02/27 07:41:59;;;;;;;16.83;7.93;;;;;;;4.94;100.00;100389.69;4984861;28;20022;-70
2023/02/27 07:44:24;;;;;;;11.45;6.30;;;;;;;5.22;100.00;100393.78;4990015;28;20057;-71
2023/02/27 07:46:50;;;;;;;18.55;5.82;;;;;;;5.29;100.00;100390.44;4991645;28;20034;-72
2023/02/27 07:49:15;;;;;;;14.75;8.20;;;;;;;5.29;100.00;100401.75;4991615;28;20034;-71
2023/02/27 07:51:41;;;;;;;17.02;12.23;;;;;;;4.38;100.00;100320.00;4991481;28;20050;-71
2023/02/27 07:54:06;;;;;;;14.60;8.15;;;;;;;4.18;100.00;100254.59;4991523;28;20045;-72
2023/02/27 07:56:32;;;;;;;12.73;7.43;;;;;;;4.58;100.00;100240.78;4985616;28;20061;-72
2023/02/27 07:58:57;;;;;;;9.57;6.57;;;;;;;5.47;100.00;100351.81;4987714;28;20037;-70
2023/02/27 08:01:23;;;;;;;11.43;6.82;;;;;;;5.08;100.00;100286.88;4989449;28;20026;-73
2023/02/27 08:03:48;;;;;;;9.57;6.63;;;;;;;5.72;100.00;100375.72;4991658;28;20510;-74
2023/02/27 08:06:14;;;;;;;10.93;6.57;;;;;;;5.74;100.00;100373.16;4989833;28;20026;-73
2023/02/27 08:08:39;;;;;;;10.80;5.03;;;;;;;5.06;100.00;100255.63;4984820;28;20037;-71
2023/02/27 08:11:05;;;;;;;10.45;6.13;;;;;;;5.77;100.00;100399.22;4979578;28;20100;-71
2023/02/27 08:13:30;;;;;;;17.73;10.07;;;;;;;5.22;100.00;100386.88;4991283;28;20033;-70
2023/02/27 08:15:56;;;;;;;9.95;4.82;;;;;;;5.08;100.00;100370.09;4984658;28;20562;-72
2023/02/27 08:18:22;;;;;;;15.45;7.30;;;;;;;5.94;100.00;100410.88;4991087;28;20031;-72
2023/02/27 08:20:47;;;;;;;7.07;4.45;;;;;;;5.39;100.00;100318.69;4990933;28;20756;-72
2023/02/27 08:23:13;;;;;;;10.00;4.78;;;;;;;5.71;100.00;100426.91;4991364;28;20037;-72
2023/02/27 08:25:39;;;;;;;6.15;3.33;;;;;;;3.97;100.00;100317.28;4988161;28;20096;-73
2023/02/27 08:28:04;;;;;;;8.40;4.50;;;;;;;4.64;100.00;100435.81;4990076;28;20034;-72
2023/02/27 08:30:30;;;;;;;22.35;8.48;;;;;;;4.72;100.00;100384.00;4990811;28;20495;-71
2023/02/27 08:32:55;;;;;;;10.75;4.45;;;;;;;5.36;100.00;100446.09;4987308;28;20027;-71
2023/02/27 08:35:21;;;;;;;13.27;4.78;;;;;;;4.80;100.00;100335.69;4986438;28;20080;-73
2023/02/27 08:37:48;;;;;;;12.25;4.63;;;;;;;5.41;100.00;100476.59;4990496;28;20049;-74
2023/02/27 08:40:14;;;;;;;11.55;6.70;;;;;;;5.44;100.00;100467.97;4990718;28;20483;-72
2023/02/27 08:42:40;;;;;;;11.13;5.80;;;;;;;4.83;100.00;100452.72;4990807;28;20073;-72
2023/02/27 08:45:06;;;;;;;14.73;5.80;;;;;;;5.28;100.00;100475.44;4989589;28;20406;-71
2023/02/27 08:47:31;;;;;;;11.70;6.43;;;;;;;5.75;100.00;100516.34;4990342;28;20035;-73
2023/02/27 08:49:57;;;;;;;9.65;6.30;;;;;;;4.65;100.00;100371.72;4988237;28;20690;-71
2023/02/27 08:52:22;;;;;;;11.23;6.05;;;;;;;4.70;100.00;100388.28;4974582;28;20403;-72
2023/02/27 08:54:48;;;;;;;12.95;5.68;;;;;;;4.98;100.00;100417.53;4986227;28;20042;-75
2023/02/27 08:57:13;;;;;;;14.80;6.35;;;;;;;5.79;100.00;100540.75;4990547;28;20037;-72
2023/02/27 08:59:39;;;;;;;12.60;5.50;;;;;;;4.93;100.00;100417.41;4990181;28;20478;-72
2023/02/27 09:02:05;;;;;;;13.15;6.85;;;;;;;5.53;100.00;100522.84;4989947;28;20521;-72
2023/02/27 09:04:30;;;;;;;14.50;6.15;;;;;;;4.70;100.00;100416.88;4989666;28;20088;-70
2023/02/27 09:06:56;;;;;;;13.50;6.53;;;;;;;4.89;100.00;100436.38;4982198;28;20042;-72
2023/02/27 09:09:23;;;;;;;17.80;6.15;;;;;;;4.94;100.00;100420.91;4986064;28;20041;-72
2023/02/27 09:11:49;;;;;;;12.98;5.88;;;;;;;5.08;100.00;100446.38;4975468;28;20446;-71
2023/02/27 09:14:15;;;;;;;10.25;7.25;;;;;;;5.68;100.00;100577.81;4988578;28;20042;-71
2023/02/27 09:16:40;;;;;;;18.90;5.95;;;;;;;4.53;100.00;100463.25;4990307;28;20509;-71
2023/02/27 09:19:06;;;;;;;15.38;7.30;;;;;;;4.97;100.00;100514.59;4986774;28;20037;-72
2023/02/27 09:21:31;;;;;;;10.65;5.90;;;;;;;4.95;100.00;100472.06;4989570;28;20034;-71
2023/02/27 09:23:57;;;;;;;19.17;6.55;;;;;;;5.17;100.00;100507.25;4989842;28;20077;-72
2023/02/27 09:26:24;;;;;;;15.00;6.88;;;;;;;5.36;100.00;100589.19;4982830;28;20118;-71
2023/02/27 09:28:49;;;;;;;10.63;5.63;;;;;;;5.65;100.00;100598.56;4982020;28;20549;-72
2023/02/27 09:31:16;;;;;;;11.02;5.43;;;;;;;5.41;100.00;100593.69;4987486;28;20061;-71
2023/02/27 09:33:42;;;;;;;8.45;5.95;;;;;;;5.75;100.00;100564.94;4989466;28;20031;-73
2023/02/27 09:36:08;;;;;;;15.27;7.97;;;;;;;5.52;100.00;100586.13;4985571;28;20035;-71
2023/02/27 09:38:34;;;;;;;20.35;7.28;;;;;;;5.43;100.00;100565.09;4970269;28;20035;-71
2023/02/27 09:41:00;;;;;;;16.58;9.57;;;;;;;5.52;100.00;100583.50;4977990;28;20038;-73
2023/02/27 09:43:30;;;;;;;13.63;7.90;;;;;;;5.71;100.00;100574.41;4988254;28;20120;-73
2023/02/27 09:45:57;;;;;;;15.63;9.63;;;;;;;5.23;100.00;100456.25;4982307;28;20854;-72
2023/02/27 09:48:32;;;;;;;18.45;9.23;;;;;;;5.37;100.00;100492.09;4986588;28;20057;-72
2023/02/27 09:50:59;;;;;;;23.23;9.40;;;;;;;6.26;100.00;100648.56;4975355;28;20088;-69
2023/02/27 09:53:44;;;;;;;16.85;11.27;;;;;;;4.81;100.00;100485.59;4987840;28;20046;-70
2023/02/27 09:56:21;;;;;;;15.45;8.73;;;;;;;6.10;100.00;100634.31;4989560;28;20034;-71
2023/02/27 09:58:50;;;;;;;18.02;9.98;;;;;;;6.22;100.00;100651.94;4989392;28;20038;-71
2023/02/27 10:01:26;;;;;;;25.50;11.48;;;;;;;5.44;100.00;100538.22;4988184;28;20045;-70
2023/02/27 10:04:13;;;;;;;15.63;9.60;;;;;;;6.09;100.00;100655.16;4989714;28;20406;-71
2023/02/27 10:07:15;;;;;;;30.33;13.18;;;;;;;6.20;100.00;100647.56;4988966;28;20061;-70
2023/02/27 10:09:49;;;;;;;19.23;8.25;;;;;;;6.28;100.00;100661.66;4989488;28;20344;-72
2023/02/27 10:13:13;;;;;;;22.50;10.23;;;;;;;6.18;100.00;100670.09;4989543;28;20551;-69
2023/02/27 10:15:46;;;;;;;16.60;8.63;;;;;;;6.35;100.00;100668.75;4928836;29;20035;-69
2023/02/27 10:18:17;;;;;;;19.65;11.82;;;;;;;6.19;100.00;100625.84;4978801;28;20046;-72
2023/02/27 10:21:04;;;;;;;16.00;8.80;;;;;;;5.64;100.00;100517.84;4988958;28;20072;-69
2023/02/27 10:23:40;;;;;;;22.85;9.90;;;;;;;5.99;100.00;100585.44;4988991;28;20026;-71
2023/02/27 10:26:12;;;;;;;17.73;8.93;;;;;;;6.22;100.00;100661.50;4989134;28;20132;-69
2023/02/27 10:28:38;;;;;;;18.20;13.05;;;;;;;5.65;100.00;100668.88;4988539;28;20482;-71
2023/02/27 10:31:16;;;;;;;21.73;13.77;;;;;;;6.04;100.00;100636.81;4984577;28;20050;-69
2023/02/27 10:33:46;;;;;;;19.85;9.75;;;;;;;6.33;100.00;100660.88;4979475;28;20573;-71
2023/02/27 10:36:13;;;;;;;21.52;8.88;;;;;;;6.33;100.00;100684.34;4978365;28;20068;-79
2023/02/27 10:38:46;;;;;;;21.63;9.40;;;;;;;5.88;100.00;100604.31;4988568;28;20039;-74
2023/02/27 10:41:16;;;;;;;19.38;13.85;;;;;;;6.08;100.00;100693.31;4988701;28;20483;-77
2023/02/27 10:43:41;;;;;;;21.30;11.13;;;;;;;6.16;100.00;100683.09;4982939;28;20162;-76
2023/02/27 10:46:16;;;;;;;16.02;10.00;;;;;;;6.29;100.00;100668.59;4988010;28;20054;-75
2023/02/27 10:48:42;;;;;;;18.58;9.50;;;;;;;6.10;100.00;100631.72;4979965;28;20117;-75
2023/02/27 10:51:27;;;;;;;15.25;9.73;;;;;;;6.01;100.00;100678.41;4980215;28;20055;-73
2023/02/27 10:54:18;;;;;;;27.58;10.57;;;;;;;6.39;100.00;100674.88;4981808;28;20038;-73
2023/02/27 10:57:18;;;;;;;17.63;10.48;;;;;;;6.45;100.00;100677.63;4988056;28;20045;-74
2023/02/27 10:59:51;;;;;;;19.05;11.32;;;;;;;6.35;100.00;100663.53;4985419;28;20038;-73
2023/02/27 11:02:19;;;;;;;28.30;16.00;;;;;;;5.68;100.00;100546.56;4978627;28;20030;-73
2023/02/27 11:05:06;;;;;;;17.58;12.23;;;;;;;5.83;100.00;100592.00;4984386;28;20057;-75
2023/02/27 11:07:37;;;;;;;21.40;10.70;;;;;;;6.34;100.00;100680.00;4986537;28;20085;-76
2023/02/27 11:10:24;;;;;;;22.13;9.98;;;;;;;6.28;100.00;100692.91;4985871;28;20053;-75
2023/02/27 11:13:20;;;;;;;20.42;11.70;;;;;;;5.81;100.00;100567.69;4984026;28;20046;-76
2023/02/27 11:16:22;;;;;;;25.05;9.98;;;;;;;6.32;100.00;100655.63;4987998;28;20505;-74
2023/02/27 11:18:50;;;;;;;16.67;9.05;;;;;;;6.17;100.00;100637.06;4986164;28;20042;-75
2023/02/27 11:21:19;;;;;;;20.92;10.02;;;;;;;6.38;100.00;100696.59;4988543;28;20042;-73
2023/02/27 11:23:59;;;;;;;25.38;11.32;;;;;;;6.37;100.00;100687.00;4986286;28;20491;-74
2023/02/27 11:26:34;;;;;;;32.00;11.65;;;;;;;6.46;100.00;100679.38;4976615;28;20069;-72
2023/02/27 11:29:17;;;;;;;18.92;9.93;;;;;;;6.29;100.00;100685.09;4988136;28;20033;-74
2023/02/27 11:31:59;;;;;;;20.27;11.95;;;;;;;5.64;100.00;100542.16;4987713;28;20034;-74
2023/02/27 11:34:35;;;;;;;23.05;11.63;;;;;;;6.51;100.00;100680.38;4988747;28;20494;-74
2023/02/27 11:37:20;;;;;;;23.45;12.75;;;;;;;5.94;100.00;100606.19;4987919;28;20034;-75
2023/02/27 11:40:08;;;;;;;20.73;12.40;;;;;;;6.54;100.00;100693.47;4988329;28;20034;-74
2023/02/27 11:42:36;;;;;;;24.08;10.77;;;;;;;6.46;100.00;100680.28;4988551;28;20041;-75